Terminal Aerodrome Forecast
Issued by NWS Omaha/Valley, NE

Home | Current Version | Previous Version | Text Only | Print | Product List | Glossary Off
Versions: 1 2 3 4 5 6 7 8 9 10 11 12 13 14 15 16 17

000
FTUS43 KOAX 160320 AAA
TAFOFK
TAF AMD
KOFK 160320Z 1603/1624 15005KT P6SM SCT008 OVC015
      TEMPO 1603/1607 4SM -FZRAPL OVC008
     FM160700 VRB04KT 5SM -FZRA OVC005
      TEMPO 1607/1611 3SM -PL OVC003
     FM161600 02010KT 3SM -FZRAPL OVC007
     FM162100 35012KT 3/4SM -SN OVC009=

USA.gov is the U.S. government's official web portal to all federal, state and local government web resources and services.